Time;durP1;ratioP1;P1;durP2;ratioP2;P2;SDS_P1;SDS_P2;PMS_P1;PMS_P2;Temp;Humidity;BMP_temperature;BMP_pressure;BME280_temperature;BME280_humidity;BME280_pressure;Samples;Min_cycle;Max_cycle;Signal;HPM_P1;HPM_P2
2023/10/02 00:02:40;;;;;;;;;19.67;17.00;;;;;23.69;67.90;101284.19;6211858;22;45432;-74
2023/10/02 00:05:05;;;;;;;;;22.33;16.00;;;;;23.61;68.13;101281.69;6210594;22;45736;-74
2023/10/02 00:07:33;;;;;;;;;24.67;22.33;;;;;23.62;68.40;101288.94;6211250;22;45325;-75
2023/10/02 00:09:59;;;;;;;;;19.00;15.67;;;;;23.60;67.95;101281.78;6203402;22;45490;-75
2023/10/02 00:12:28;;;;;;;;;18.00;16.67;;;;;23.56;68.41;101284.56;6181196;22;45388;-74
2023/10/02 00:14:55;;;;;;;;;17.33;13.67;;;;;23.56;68.64;101284.56;6178641;23;46963;-74
2023/10/02 00:17:23;;;;;;;;;23.33;19.33;;;;;23.65;68.58;101290.66;6182260;22;45710;-75
2023/10/02 00:19:57;;;;;;;;;20.33;19.67;;;;;23.63;68.75;101287.09;6181410;22;45404;-75
2023/10/02 00:22:41;;;;;;;;;21.00;15.33;;;;;23.58;68.54;101289.09;6181620;23;45372;-74
2023/10/02 00:25:16;;;;;;;;;27.00;20.67;;;;;23.55;68.82;101288.25;6179016;23;45567;-74
2023/10/02 00:27:46;;;;;;;;;23.67;19.33;;;;;23.63;68.52;101290.72;6181127;22;45482;-74
2023/10/02 00:30:13;;;;;;;;;22.67;21.00;;;;;23.53;69.06;101294.63;6181408;22;45406;-74
2023/10/02 00:32:45;;;;;;;;;23.00;22.33;;;;;23.53;69.05;101289.19;6179462;23;45379;-74
2023/10/02 00:35:11;;;;;;;;;23.67;22.00;;;;;23.46;68.61;101285.81;6180736;23;46518;-75
2023/10/02 00:37:44;;;;;;;;;25.67;21.00;;;;;23.48;68.53;101291.19;6180843;22;45344;-74
2023/10/02 00:40:20;;;;;;;;;22.33;17.67;;;;;23.62;69.13;101288.94;6180757;22;45349;-74
2023/10/02 00:42:58;;;;;;;;;21.67;18.00;;;;;23.60;69.14;101285.38;6181090;22;45369;-74
2023/10/02 00:45:38;;;;;;;;;21.67;16.67;;;;;23.62;69.13;101283.50;6181275;22;45986;-74
2023/10/02 00:48:28;;;;;;;;;22.00;17.00;;;;;23.43;69.19;101285.00;6180932;22;45493;-75
2023/10/02 00:50:59;;;;;;;;;25.67;19.33;;;;;23.43;69.16;101282.28;6180858;23;45355;-76
2023/10/02 00:53:38;;;;;;;;;27.00;22.33;;;;;23.48;68.91;101285.75;6180803;22;45415;-76
2023/10/02 00:56:21;;;;;;;;;19.00;14.67;;;;;23.53;68.46;101286.50;6180413;22;45360;-75
2023/10/02 00:58:58;;;;;;;;;20.67;18.33;;;;;23.51;68.79;101291.06;6180501;22;45692;-74
2023/10/02 01:01:25;;;;;;;;;27.33;21.33;;;;;23.40;68.99;101285.09;6180494;22;45448;-74
2023/10/02 01:04:10;;;;;;;;;21.67;19.67;;;;;23.33;69.12;101287.13;6203653;22;45665;-75
2023/10/02 01:09:30;;;;;;;;;26.00;18.33;;;;;23.32;69.45;101288.94;6189806;22;45413;-74
2023/10/02 01:11:57;;;;;;;;;23.33;21.67;;;;;23.27;69.08;101277.34;6183513;22;45746;-74
2023/10/02 01:17:31;;;;;;;;;15.33;12.67;;;;;23.26;69.29;101278.25;6087334;23;45509;-75
2023/10/02 01:20:01;;;;;;;;;21.33;17.33;;;;;23.24;69.62;101277.41;6088982;23;45313;-74
2023/10/02 01:22:27;;;;;;;;;24.33;17.67;;;;;23.25;69.21;101272.88;6089137;23;45396;-74
2023/10/02 01:25:12;;;;;;;;;23.33;17.33;;;;;23.43;69.54;101276.84;6088642;23;45456;-74
2023/10/02 01:27:41;;;;;;;;;22.67;18.33;;;;;23.22;69.85;101272.97;6087418;23;46886;-74
2023/10/02 01:30:15;;;;;;;;;18.33;17.33;;;;;23.35;70.10;101275.28;6089435;23;45386;-75
2023/10/02 01:33:26;;;;;;;;;21.00;19.67;;;;;23.43;69.72;101279.56;6088486;23;45414;-75
2023/10/02 01:35:46;;;;;;;;;19.33;18.33;;;;;23.23;70.35;101270.22;6084755;23;45382;-75
2023/10/02 01:38:14;;;;;;;;;23.67;15.33;;;;;23.30;70.31;101270.94;6087812;23;45416;-75
2023/10/02 01:40:54;;;;;;;;;14.67;14.33;;;;;23.39;69.99;101275.16;6087893;23;45367;-74
2023/10/02 01:43:24;;;;;;;;;18.67;15.67;;;;;23.31;70.19;101272.72;6087673;23;45466;-74
2023/10/02 01:45:56;;;;;;;;;20.00;19.00;;;;;23.13;70.73;101269.63;6087607;23;45460;-74
2023/10/02 01:48:39;;;;;;;;;24.00;19.00;;;;;23.05;70.03;101255.38;6087056;23;47210;-76
2023/10/02 01:51:20;;;;;;;;;23.33;19.67;;;;;23.24;70.44;101272.00;6131763;22;45581;-74
2023/10/02 01:53:46;;;;;;;;;28.33;24.67;;;;;23.06;70.75;101258.97;6184865;22;45575;-75
2023/10/02 01:56:12;;;;;;;;;19.33;19.33;;;;;23.06;70.83;101262.56;6212119;22;45394;-75
2023/10/02 01:58:47;;;;;;;;;24.33;23.00;;;;;23.20;70.23;101259.44;6212544;22;45443;-75
2023/10/02 02:01:13;;;;;;;;;20.00;17.00;;;;;22.93;71.09;101256.59;6212034;22;45468;-74
2023/10/02 02:03:48;;;;;;;;;22.67;19.33;;;;;23.12;71.14;101247.94;6213294;22;45411;-75
2023/10/02 02:06:22;;;;;;;;;22.33;18.67;;;;;22.89;71.31;101249.47;6212499;22;45468;-75
2023/10/02 02:08:52;;;;;;;;;23.33;21.33;;;;;22.88;72.10;101252.22;6207899;22;46928;-74
2023/10/02 02:11:23;;;;;;;;;26.33;20.33;;;;;22.93;71.60;101248.47;6184736;22;45298;-75
2023/10/02 02:13:52;;;;;;;;;23.33;18.00;;;;;22.96;71.70;101239.34;6212085;22;45388;-75
2023/10/02 02:16:25;;;;;;;;;23.33;21.33;;;;;22.86;72.28;101240.53;6184160;22;45306;-75
2023/10/02 02:18:55;;;;;;;;;20.33;17.00;;;;;22.76;72.73;101237.19;6184023;22;46323;-75
2023/10/02 02:21:25;;;;;;;;;21.67;18.00;;;;;22.75;72.43;101241.75;6209560;22;45661;-74
2023/10/02 02:24:06;;;;;;;;;21.33;18.33;;;;;22.76;72.79;101242.63;6184598;22;45424;-74
2023/10/02 02:26:39;;;;;;;;;21.00;18.67;;;;;22.85;72.17;101247.78;6212058;22;45371;-74
2023/10/02 02:29:21;;;;;;;;;20.67;18.00;;;;;22.71;72.41;101240.06;6184149;22;47837;-74
2023/10/02 02:31:47;;;;;;;;;22.67;19.67;;;;;22.61;72.79;101234.94;6211241;22;45478;-74
2023/10/02 02:34:15;;;;;;;;;18.00;16.67;;;;;22.63;73.06;101235.78;6183963;22;45385;-74
2023/10/02 02:36:42;;;;;;;;;19.00;15.00;;;;;22.67;72.53;101234.78;6211123;22;45344;-75
2023/10/02 02:39:15;;;;;;;;;26.33;20.67;;;;;22.67;73.21;101240.19;6211074;22;45403;-74
2023/10/02 02:42:08;;;;;;;;;24.33;20.00;;;;;22.71;73.25;101233.75;6183524;22;45584;-75
2023/10/02 02:44:41;;;;;;;;;25.33;19.67;;;;;22.44;73.79;101236.31;6209705;22;45419;-74
2023/10/02 02:47:12;;;;;;;;;23.67;19.67;;;;;22.68;73.71;101237.44;6185751;22;45496;-74
2023/10/02 02:49:52;;;;;;;;;22.33;21.33;;;;;22.61;73.45;101232.22;6209337;22;46919;-73
2023/10/02 02:52:22;;;;;;;;;24.67;21.33;;;;;22.61;73.22;101229.53;6183723;22;45413;-74
2023/10/02 02:54:48;;;;;;;;;23.00;21.67;;;;;22.46;73.36;101236.25;6183932;22;45438;-74
2023/10/02 02:57:25;;;;;;;;;21.67;21.00;;;;;22.58;73.75;101235.91;6211704;22;45479;-75
2023/10/02 03:00:37;;;;;;;;;22.33;19.00;;;;;22.47;73.92;101230.78;6183561;22;47763;-74
2023/10/02 03:02:46;;;;;;;;;20.33;18.67;;;;;22.34;74.55;101227.53;6194079;22;45349;-75
2023/10/02 03:05:16;;;;;;;;;22.00;19.33;;;;;22.33;74.17;101227.56;6208631;22;45389;-75
2023/10/02 03:07:42;;;;;;;;;20.00;17.33;;;;;22.31;74.81;101224.88;6184031;22;45467;-75
2023/10/02 03:10:12;;;;;;;;;22.67;21.00;;;;;22.35;74.94;101215.75;6208436;22;46366;-74
2023/10/02 03:12:44;;;;;;;;;23.00;22.00;;;;;22.29;74.73;101215.03;6211024;22;45722;-75
2023/10/02 03:15:12;;;;;;;;;23.67;23.00;;;;;22.29;74.84;101226.75;6183416;22;45397;-76
2023/10/02 03:17:41;;;;;;;;;21.00;18.67;;;;;22.20;75.05;101215.22;6211879;22;45367;-74
2023/10/02 03:20:22;;;;;;;;;25.33;22.00;;;;;22.18;75.45;101216.16;6209873;22;47228;-74
2023/10/02 03:22:53;;;;;;;;;22.33;20.00;;;;;22.25;75.49;101218.75;6183278;22;45432;-75
2023/10/02 03:25:27;;;;;;;;;23.00;18.00;;;;;22.18;75.54;101218.00;6183575;22;45540;-75
2023/10/02 03:27:54;;;;;;;;;21.00;18.67;;;;;22.18;75.34;101215.28;6211200;22;45464;-75
2023/10/02 03:30:35;;;;;;;;;21.33;16.67;;;;;22.18;75.55;101213.47;6211050;22;46131;-74
2023/10/02 03:33:17;;;;;;;;;22.33;20.00;;;;;22.26;75.80;101212.38;6211060;22;45456;-74
2023/10/02 03:35:58;;;;;;;;;20.67;20.67;;;;;22.35;75.46;101209.44;6210352;22;45290;-74
2023/10/02 03:38:32;;;;;;;;;21.33;19.00;;;;;22.32;75.94;101212.25;6211256;22;45465;-75
2023/10/02 03:40:59;;;;;;;;;21.00;18.33;;;;;22.13;76.30;101206.38;6210794;22;46086;-75
2023/10/02 03:44:07;;;;;;;;;17.00;16.67;;;;;22.09;76.02;101202.84;6210787;22;45407;-75
2023/10/02 03:46:22;;;;;;;;;20.67;15.00;;;;;22.10;76.89;101210.06;6199227;22;45598;-73
2023/10/02 03:48:58;;;;;;;;;22.67;20.33;;;;;22.04;76.36;101198.53;6211451;22;45297;-74
2023/10/02 03:51:40;;;;;;;;;21.67;20.00;;;;;22.02;76.90;101212.09;6210802;22;45385;-74
2023/10/02 03:54:22;;;;;;;;;28.67;23.67;;;;;22.04;76.64;101202.09;6211074;22;45444;-75
2023/10/02 03:56:55;;;;;;;;;20.33;18.33;;;;;22.08;77.29;101200.22;6211697;22;45488;-75
2023/10/02 03:59:25;;;;;;;;;22.33;20.33;;;;;22.05;77.13;101200.28;6211077;22;45384;-74
2023/10/02 04:01:51;;;;;;;;;25.00;23.33;;;;;21.98;77.21;101202.25;6211180;22;45803;-74
2023/10/02 04:06:43;;;;;;;;;19.00;19.00;;;;;21.98;77.48;101199.56;6211002;22;45396;-74
2023/10/02 04:09:21;;;;;;;;;23.33;22.33;;;;;22.04;77.29;101196.69;6209295;22;45365;-75
2023/10/02 04:11:50;;;;;;;;;23.33;22.33;;;;;21.96;77.76;101196.00;6208592;22;47182;-74
2023/10/02 04:14:32;;;;;;;;;19.00;17.00;;;;;22.07;77.41;101193.88;6207948;22;45640;-74
2023/10/02 04:17:12;;;;;;;;;22.00;20.67;;;;;22.14;76.80;101189.22;6210763;22;45474;-75
2023/10/02 04:20:01;;;;;;;;;27.33;21.33;;;;;21.95;78.17;101191.50;6210996;22;45261;-75
2023/10/02 04:22:26;;;;;;;;;19.67;18.67;;;;;21.85;78.13;101185.41;6210557;22;45492;-75
2023/10/02 04:25:06;;;;;;;;;25.67;24.00;;;;;21.98;78.01;101186.03;6183465;22;45598;-75
2023/10/02 04:32:39;;;;;;;;;21.00;17.67;;;;;21.93;77.96;101183.41;6210499;22;45423;-75
2023/10/02 04:35:57;;;;;;;;;20.00;17.33;;;;;21.91;78.59;101182.56;6182954;22;45471;-74
2023/10/02 04:37:59;;;;;;;;;22.00;18.00;;;;;21.84;77.86;101174.66;6198343;22;45428;-75
2023/10/02 04:40:37;;;;;;;;;20.67;20.67;;;;;21.88;78.29;101177.25;6211059;22;45439;-74
2023/10/02 04:43:22;;;;;;;;;20.67;19.33;;;;;21.93;78.69;101177.09;6210556;22;46126;-75
2023/10/02 04:45:48;;;;;;;;;28.33;20.00;;;;;21.82;78.20;101180.09;6208656;22;45407;-73
2023/10/02 04:48:17;;;;;;;;;23.67;20.67;;;;;21.95;78.56;101169.84;6211000;22;45356;-73
2023/10/02 04:50:46;;;;;;;;;21.33;20.00;;;;;21.80;78.90;101183.78;6183345;22;45463;-74
2023/10/02 04:55:43;;;;;;;;;21.67;20.00;;;;;21.78;78.91;101183.81;6210507;22;45352;-74
2023/10/02 04:58:14;;;;;;;;;16.33;14.00;;;;;21.83;78.92;101183.69;6210763;22;45420;-74
2023/10/02 05:01:18;;;;;;;;;17.00;14.67;;;;;21.74;79.46;101179.41;6210643;22;45297;-75
2023/10/02 05:03:27;;;;;;;;;17.33;17.00;;;;;21.70;79.83;101175.88;6209391;22;45436;-74
2023/10/02 05:05:53;;;;;;;;;17.33;17.33;;;;;21.70;79.56;101170.47;6183574;22;45452;-75
2023/10/02 05:08:33;;;;;;;;;22.00;17.00;;;;;21.85;79.77;101171.00;6210578;22;45392;-76
2023/10/02 05:11:06;;;;;;;;;22.67;18.00;;;;;21.68;79.69;101174.16;6177566;23;45322;-74
2023/10/02 05:13:53;;;;;;;;;21.33;18.67;;;;;21.60;79.38;101173.47;6179550;22;45366;-75
2023/10/02 05:16:26;;;;;;;;;19.67;18.00;;;;;21.50;79.85;101170.09;6179386;23;45389;-74
2023/10/02 05:18:53;;;;;;;;;17.33;17.33;;;;;21.51;79.83;101171.84;6178339;23;45370;-75
2023/10/02 05:21:19;;;;;;;;;27.33;23.67;;;;;21.38;80.21;101172.13;6178392;23;45537;-75
2023/10/02 05:24:00;;;;;;;;;18.33;16.67;;;;;21.43;80.83;101173.84;6180349;23;45356;-75
2023/10/02 05:26:44;;;;;;;;;17.00;15.00;;;;;21.32;80.36;101166.84;6180691;22;45674;-75
2023/10/02 05:29:17;;;;;;;;;20.00;16.67;;;;;21.45;80.95;101172.00;6181440;22;45492;-75
2023/10/02 05:31:49;;;;;;;;;16.67;14.00;;;;;21.25;81.50;101170.63;6181333;22;45420;-75
2023/10/02 05:34:24;;;;;;;;;20.00;17.67;;;;;21.38;81.49;101169.41;6181053;22;46104;-75
2023/10/02 05:37:23;;;;;;;;;22.67;20.00;;;;;21.36;81.46;101168.56;6181269;22;45427;-74
2023/10/02 05:39:40;;;;;;;;;21.67;19.67;;;;;21.17;81.85;101183.47;6180299;23;45470;-75
2023/10/02 05:42:15;;;;;;;;;23.67;20.67;;;;;21.33;81.17;101174.06;6179262;23;45496;-74
2023/10/02 05:44:47;;;;;;;;;21.67;19.00;;;;;21.37;81.60;101175.75;6181025;22;45478;-74
2023/10/02 05:47:16;;;;;;;;;22.33;17.33;;;;;21.10;82.14;101177.28;6178633;23;45377;-75
2023/10/02 05:49:48;;;;;;;;;15.67;15.67;;;;;21.22;82.23;101183.34;6181381;22;45531;-75
2023/10/02 05:52:23;;;;;;;;;16.33;15.67;;;;;21.66;80.91;101182.31;6181366;22;45364;-75
2023/10/02 05:54:53;;;;;;;;;18.67;17.33;;;;;21.70;80.03;101178.59;6204275;22;46904;-75
2023/10/02 05:57:31;;;;;;;;;22.00;17.67;;;;;22.03;79.05;101167.81;6179338;23;45480;-75
2023/10/02 05:59:59;;;;;;;;;19.67;18.00;;;;;21.91;78.23;101177.16;6181736;22;45360;-75
2023/10/02 06:02:24;;;;;;;;;21.33;18.00;;;;;21.83;78.33;101178.28;6181173;23;45444;-74
2023/10/02 06:05:07;;;;;;;;;19.00;12.33;;;;;21.86;78.42;101170.97;6181891;22;45531;-76
2023/10/02 06:07:44;;;;;;;;;21.67;21.67;;;;;21.70;78.74;101177.72;6179351;23;45431;-75
2023/10/02 06:10:24;;;;;;;;;25.00;22.33;;;;;21.71;78.69;101174.97;6191268;22;45476;-74
2023/10/02 06:12:50;;;;;;;;;24.00;20.67;;;;;21.65;78.50;101176.91;6211300;22;45336;-73
2023/10/02 06:18:01;;;;;;;;;23.33;20.00;;;;;21.53;78.64;101178.09;6211018;22;45700;-75
2023/10/02 06:20:27;;;;;;;;;19.67;17.33;;;;;21.61;78.62;101189.63;6183811;22;45419;-74
2023/10/02 06:23:05;;;;;;;;;20.00;20.00;;;;;21.67;78.54;101178.69;6211197;22;45433;-74
2023/10/02 06:25:31;;;;;;;;;21.67;19.67;;;;;21.73;77.88;101183.94;6211936;22;45541;-76
2023/10/02 06:28:19;;;;;;;;;25.00;21.33;;;;;21.81;77.69;101190.97;6183450;22;45424;-75
2023/10/02 06:30:43;;;;;;;;;22.67;21.67;;;;;21.87;76.96;101190.81;6210912;22;45797;-75
2023/10/02 06:33:10;;;;;;;;;22.00;17.33;;;;;21.90;76.93;101194.34;6183438;22;45384;-74
2023/10/02 06:35:44;;;;;;;;;24.67;19.67;;;;;21.93;76.56;101198.78;6209093;22;47118;-74
2023/10/02 06:38:15;;;;;;;;;20.67;20.00;;;;;21.96;76.33;101196.00;6183135;22;45426;-75
2023/10/02 06:40:55;;;;;;;;;24.33;22.00;;;;;21.97;76.28;101195.06;6211161;22;45384;-76
2023/10/02 06:43:28;;;;;;;;;24.00;22.00;;;;;21.87;76.20;101196.22;6210995;22;45716;-74
2023/10/02 06:46:07;;;;;;;;;25.00;22.67;;;;;21.81;76.70;101201.81;6211964;22;46460;-74
2023/10/02 06:48:56;;;;;;;;;26.33;22.33;;;;;21.94;76.39;101197.84;6203688;22;45832;-84
2023/10/02 06:59:38;;;;;;;;;30.67;23.33;;;;;22.03;76.23;101197.59;6189350;22;45738;-85
2023/10/02 07:05:20;;;;;;;;;22.33;17.33;;;;;21.93;75.39;101174.41;6190305;22;46810;-84
2023/10/02 08:40:57;;;;;;;;;34.00;25.33;;;;;23.92;67.84;101199.28;6264743;22;45189;-84
2023/10/02 08:54:55;;;;;;;;;32.67;25.67;;;;;24.38;65.78;101169.56;6180253;22;46734;-84
2023/10/02 09:00:27;;;;;;;;;32.67;27.67;;;;;24.81;64.48;101193.38;6210259;22;46326;-84
2023/10/02 09:03:25;;;;;;;;;16.67;15.00;;;;;24.74;64.85;101183.66;6201671;22;46765;-83
2023/10/02 09:06:13;;;;;;;;;28.00;24.00;;;;;24.60;64.63;101200.47;6200761;22;44977;-83
2023/10/02 09:46:59;;;;;;;;;28.67;23.33;;;;;25.61;60.30;101133.03;6233688;22;44935;-83
2023/10/02 10:59:42;;;;;;;;;25.50;23.00;;;;;27.50;55.74;101082.47;6123693;22;46649;31
2023/10/02 11:02:16;;;;;;;;;26.67;22.33;;;;;27.52;55.23;101083.28;6207482;22;47857;-78
2023/10/02 11:04:51;;;;;;;;;60.33;46.67;;;;;27.62;55.69;101076.38;6188307;22;45410;-76
2023/10/02 11:07:47;;;;;;;;;49.67;40.33;;;;;27.53;57.04;101061.38;6218300;22;45447;-75
2023/10/02 11:10:22;;;;;;;;;26.00;22.00;;;;;27.64;54.86;101069.00;6183471;22;45548;-75
2023/10/02 11:12:59;;;;;;;;;47.67;40.33;;;;;27.63;55.29;101044.47;6209754;22;45473;-76
2023/10/02 11:15:46;;;;;;;;;63.50;50.50;;;;;28.02;55.01;101059.78;6208993;22;45420;-76
2023/10/02 11:18:23;;;;;;;;;66.00;51.33;;;;;28.27;54.38;101073.84;6206841;22;45379;-75
2023/10/02 11:20:56;;;;;;;;;33.00;30.33;;;;;28.30;53.23;101072.81;6219324;22;45340;-74
2023/10/02 11:23:44;;;;;;;;;26.67;21.67;;;;;28.43;52.04;101073.03;6205149;22;48203;-74
2023/10/02 11:26:14;;;;;;;;;38.33;33.00;;;;;28.27;53.99;101079.31;6207641;22;45470;-75
2023/10/02 11:28:49;;;;;;;;;25.00;22.00;;;;;28.48;52.99;101076.38;6182337;22;45385;-76
2023/10/02 11:31:29;;;;;;;;;27.33;23.67;;;;;28.43;51.66;101073.91;6182679;22;45358;-73
2023/10/02 11:34:21;;;;;;;;;26.00;24.67;;;;;28.47;52.93;101069.16;6209990;22;45487;-74
2023/10/02 11:36:55;;;;;;;;;25.67;25.33;;;;;28.23;53.28;101065.91;6203245;22;45512;-73
2023/10/02 11:39:26;;;;;;;;;29.33;26.33;;;;;28.26;52.97;101069.38;6181900;22;45356;-74
2023/10/02 11:41:51;;;;;;;;;26.67;24.33;;;;;28.26;52.71;101068.50;6208319;22;45847;-75
2023/10/02 11:44:17;;;;;;;;;27.67;24.33;;;;;28.23;53.65;101061.31;6210217;22;45404;-75
2023/10/02 11:46:47;;;;;;;;;24.67;23.67;;;;;28.29;52.87;101062.84;6210037;22;45375;-74
2023/10/02 11:49:14;;;;;;;;;27.67;24.00;;;;;28.30;53.70;101050.94;6210801;22;45387;-75
2023/10/02 11:51:40;;;;;;;;;24.00;21.33;;;;;28.39;53.30;101050.41;6182198;22;45646;-74
2023/10/02 11:54:21;;;;;;;;;33.67;28.33;;;;;28.42;53.42;101047.53;6208130;22;46239;-74
2023/10/02 11:56:47;;;;;;;;;26.33;21.00;;;;;28.48;53.00;101049.00;6206704;22;45843;-75
2023/10/02 11:59:15;;;;;;;;;28.33;22.67;;;;;28.51;52.65;101041.53;6209234;22;45320;-74
2023/10/02 12:01:43;;;;;;;;;31.33;25.67;;;;;28.51;53.17;101033.34;6206368;22;45385;-73
2023/10/02 12:04:08;;;;;;;;;24.67;21.00;;;;;28.61;53.61;101028.22;6180928;22;46169;-75
2023/10/02 12:06:36;;;;;;;;;22.67;22.00;;;;;28.77;52.14;101028.25;6209885;22;45581;-74
2023/10/02 12:09:01;;;;;;;;;22.67;22.67;;;;;28.84;52.41;101032.38;6204011;22;45764;-74
2023/10/02 12:11:30;;;;;;;;;20.67;18.67;;;;;28.98;53.18;101019.75;6180148;22;45857;-73
2023/10/02 12:13:56;;;;;;;;;26.00;22.33;;;;;29.10;53.00;101006.19;6197279;22;47316;-75
2023/10/02 12:16:21;;;;;;;;;24.33;23.67;;;;;29.21;52.61;101005.63;6211205;22;45365;-74
2023/10/02 12:18:50;;;;;;;;;25.00;24.67;;;;;29.41;51.98;101007.16;6211314;22;45345;-73
2023/10/02 12:21:17;;;;;;;;;27.67;21.67;;;;;29.43;51.71;101016.16;6209829;22;45799;-74
2023/10/02 12:23:44;;;;;;;;;26.00;23.67;;;;;29.56;51.00;101013.53;6210294;22;45411;-75
2023/10/02 12:26:16;;;;;;;;;25.67;24.33;;;;;29.69;51.39;101014.56;6204344;22;45630;-74
2023/10/02 12:28:43;;;;;;;;;24.00;22.67;;;;;29.54;51.36;101006.41;6207019;22;45431;-73
2023/10/02 12:31:14;;;;;;;;;24.00;22.00;;;;;29.67;50.89;100994.59;6208579;22;45415;-74
2023/10/02 12:33:44;;;;;;;;;26.33;22.00;;;;;29.62;50.44;100991.25;6206447;22;45362;-72
2023/10/02 12:36:18;;;;;;;;;22.00;20.67;;;;;29.58;50.01;100989.66;6207020;22;45324;-73
2023/10/02 12:38:47;;;;;;;;;26.00;21.33;;;;;29.50;50.86;100989.25;6207781;22;45550;-74
2023/10/02 12:41:18;;;;;;;;;26.00;21.33;;;;;29.49;50.63;100974.69;6207621;22;45365;-74
2023/10/02 12:43:45;;;;;;;;;16.00;13.33;;;;;29.41;52.03;100970.63;6207222;22;45878;-75
2023/10/02 12:46:14;;;;;;;;;15.67;15.67;;;;;29.51;51.75;100972.72;6206229;22;45495;-73
2023/10/02 12:48:46;;;;;;;;;17.00;13.00;;;;;29.71;51.81;100970.63;6180772;22;45458;-73
2023/10/02 12:51:14;;;;;;;;;18.33;15.67;;;;;29.68;50.77;100963.44;6181008;22;45760;-74
2023/10/02 12:53:40;;;;;;;;;26.00;21.33;;;;;29.72;49.80;100966.91;6181026;22;47673;-73
2023/10/02 12:56:06;;;;;;;;;27.00;23.00;;;;;29.71;50.45;100948.69;6180205;22;45374;-72
2023/10/02 12:58:33;;;;;;;;;23.33;18.67;;;;;29.80;49.92;100948.13;6179567;22;45434;-74
2023/10/02 13:01:00;;;;;;;;;18.67;16.33;;;;;29.68;50.71;100940.66;6176796;23;45352;-73
2023/10/02 13:03:31;;;;;;;;;21.67;21.67;;;;;29.82;49.68;100934.31;6174758;23;46966;-75
2023/10/02 13:06:01;;;;;;;;;20.33;19.67;;;;;29.61;49.38;100936.50;6175148;23;45448;-73
2023/10/02 13:08:27;;;;;;;;;20.33;20.00;;;;;29.62;50.44;100932.81;6173105;23;45445;-73
2023/10/02 13:10:54;;;;;;;;;24.00;23.00;;;;;29.69;50.01;100932.34;6182793;23;45415;-73
2023/10/02 13:13:24;;;;;;;;;16.33;13.67;;;;;29.67;49.94;100922.41;6179133;23;45962;-72
2023/10/02 13:15:51;;;;;;;;;23.00;21.00;;;;;29.46;50.36;100913.69;6178286;23;45348;-73
2023/10/02 13:18:17;;;;;;;;;20.33;16.67;;;;;29.53;50.20;100912.31;6178705;23;45302;-73
2023/10/02 13:20:43;;;;;;;;;26.67;22.67;;;;;29.51;49.50;100908.78;6177809;23;45323;-73
2023/10/02 13:23:12;;;;;;;;;18.33;17.00;;;;;29.66;49.94;100907.84;6177566;23;45376;-73
2023/10/02 13:25:42;;;;;;;;;25.67;21.00;;;;;29.75;49.97;100902.78;6200104;22;45721;-76
2023/10/02 13:28:11;;;;;;;;;14.67;14.67;;;;;29.60;50.74;100894.53;6177565;23;45270;-74
2023/10/02 13:30:41;;;;;;;;;25.00;20.33;;;;;29.63;50.94;100896.19;6177538;23;45782;-73
2023/10/02 13:33:07;;;;;;;;;17.33;16.67;;;;;29.59;50.61;100892.78;6176997;23;45414;-73
2023/10/02 13:35:44;;;;;;;;;14.33;13.67;;;;;29.79;50.75;100887.91;6177877;23;45354;-74
2023/10/02 13:38:10;;;;;;;;;19.00;17.67;;;;;29.58;49.66;100887.38;6201494;22;45325;-74
2023/10/02 13:40:38;;;;;;;;;23.00;20.00;;;;;29.51;50.55;100875.91;6176984;23;45427;-74
2023/10/02 13:43:07;;;;;;;;;21.00;20.33;;;;;29.55;49.81;100884.81;6178907;23;46261;-74
2023/10/02 13:45:36;;;;;;;;;20.00;18.00;;;;;29.57;49.90;100878.28;6178803;23;45376;-74
2023/10/02 13:48:04;;;;;;;;;16.67;15.00;;;;;29.56;50.29;100889.34;6179352;23;45465;-73
2023/10/02 13:50:35;;;;;;;;;19.67;17.67;;;;;29.78;50.56;100877.94;6178511;22;45395;-73
2023/10/02 13:53:01;;;;;;;;;19.67;18.33;;;;;29.61;50.59;100876.22;6179876;23;45384;-72
2023/10/02 13:55:27;;;;;;;;;21.33;20.00;;;;;29.56;50.14;100873.78;6179545;23;45813;-72
2023/10/02 13:57:57;;;;;;;;;26.67;20.33;;;;;29.64;50.15;100854.97;6179872;23;45415;-74
2023/10/02 14:00:32;;;;;;;;;19.00;17.67;;;;;29.79;49.46;100855.00;6183574;22;45375;-73
2023/10/02 14:02:57;;;;;;;;;26.67;23.67;;;;;29.63;50.16;100858.72;6182818;22;47060;-74
2023/10/02 14:05:29;;;;;;;;;12.00;12.00;;;;;29.68;50.48;100853.81;6182685;22;45525;-73
2023/10/02 14:07:54;;;;;;;;;16.67;14.67;;;;;29.69;50.86;100850.09;6209902;22;45441;-73
2023/10/02 14:10:20;;;;;;;;;16.67;15.00;;;;;29.68;49.61;100851.06;6211505;22;45683;-73
2023/10/02 14:12:46;;;;;;;;;22.33;19.00;;;;;29.64;50.09;100843.16;6183147;22;47463;-73
2023/10/02 14:15:17;;;;;;;;;18.67;14.67;;;;;29.82;49.60;100841.97;6210557;22;45286;-74
2023/10/02 14:17:46;;;;;;;;;19.67;16.33;;;;;29.89;49.72;100842.44;6182413;22;44908;-73
2023/10/02 14:20:15;;;;;;;;;18.67;17.67;;;;;29.81;49.38;100839.34;6210642;22;45368;-74
2023/10/02 14:22:47;;;;;;;;;15.33;13.33;;;;;30.04;49.98;100825.00;6210254;22;45292;-74
2023/10/02 14:25:14;;;;;;;;;9.33;7.00;;;;;29.82;49.85;100831.00;6208915;22;45692;-73
2023/10/02 14:27:42;;;;;;;;;19.67;15.33;;;;;29.74;50.27;100818.78;6206473;22;45500;-73
2023/10/02 14:30:12;;;;;;;;;10.75;9.00;;;;;29.75;50.12;100817.81;6181893;22;45533;-73
2023/10/02 14:32:39;;;;;;;;;12.00;11.00;;;;;29.81;50.96;100817.41;6208709;22;47067;-73
2023/10/02 14:35:07;;;;;;;;;15.33;12.67;;;;;29.71;50.07;100815.28;6182384;22;45381;-73
2023/10/02 14:37:33;;;;;;;;;13.00;11.00;;;;;29.74;50.42;100816.94;6181744;22;45460;-73
2023/10/02 14:40:00;;;;;;;;;12.67;11.33;;;;;29.68;49.71;100812.69;6207780;22;45573;-73
2023/10/02 14:42:26;;;;;;;;;22.33;20.33;;;;;29.71;48.95;100798.81;6182111;22;45450;-73
2023/10/02 14:44:52;;;;;;;;;13.33;11.67;;;;;29.73;49.69;100797.84;6209784;22;45404;-74
2023/10/02 14:47:18;;;;;;;;;17.67;16.33;;;;;29.69;49.12;100797.13;6208858;22;45332;-73
2023/10/02 14:49:44;;;;;;;;;21.33;20.33;;;;;29.79;48.33;100791.94;6208929;22;45267;-74
2023/10/02 14:52:10;;;;;;;;;14.67;11.67;;;;;29.75;48.93;100783.03;6182011;22;46905;-73
2023/10/02 14:54:36;;;;;;;;;19.00;16.67;;;;;29.79;48.90;100787.34;6180934;22;45359;-74
2023/10/02 14:57:01;;;;;;;;;18.00;14.33;;;;;29.84;48.70;100789.78;6181807;22;45444;-74
2023/10/02 14:59:36;;;;;;;;;12.33;9.00;;;;;29.96;48.63;100778.00;6207043;22;45551;-74
2023/10/02 15:02:03;;;;;;;;;14.33;14.33;;;;;29.80;48.51;100780.88;6207558;22;45842;-74
2023/10/02 15:04:29;;;;;;;;;15.00;11.00;;;;;29.78;47.39;100777.38;6181738;22;45656;-73
2023/10/02 15:06:54;;;;;;;;;11.67;11.67;;;;;29.82;48.30;100783.53;6181278;22;45407;-74
2023/10/02 15:09:23;;;;;;;;;16.33;16.33;;;;;29.84;48.26;100773.34;6181802;22;45687;-73
2023/10/02 15:11:50;;;;;;;;;17.00;15.67;;;;;29.90;48.11;100779.28;6209118;22;46347;-74
2023/10/02 15:14:15;;;;;;;;;9.67;9.67;;;;;29.81;48.77;100768.06;6208060;22;45308;-73
2023/10/02 15:16:41;;;;;;;;;18.67;16.00;;;;;29.83;47.59;100760.59;6183877;22;45785;-74
2023/10/02 15:19:06;;;;;;;;;20.33;16.33;;;;;29.89;47.38;100769.31;6209315;22;45295;-73
2023/10/02 15:21:32;;;;;;;;;18.67;16.33;;;;;29.92;47.35;100770.97;6208862;22;45379;-75
2023/10/02 15:23:58;;;;;;;;;18.00;17.67;;;;;29.99;48.05;100769.56;6209052;22;45386;-75
2023/10/02 15:26:24;;;;;;;;;14.67;13.33;;;;;29.97;47.93;100759.69;6208626;22;45512;-75
2023/10/02 15:28:50;;;;;;;;;18.67;15.33;;;;;29.99;48.04;100766.81;6208983;22;45409;-73
2023/10/02 15:31:16;;;;;;;;;17.00;13.67;;;;;30.01;47.37;100759.38;6207444;22;45383;-73
2023/10/02 15:33:43;;;;;;;;;16.00;14.33;;;;;30.05;47.45;100754.56;6209733;22;45431;-74
2023/10/02 15:36:08;;;;;;;;;16.33;16.00;;;;;30.01;47.35;100763.97;6208809;22;45784;-74
2023/10/02 15:38:34;;;;;;;;;13.00;10.33;;;;;30.02;48.09;100755.66;6208944;22;45423;-74